sensor_id;sensor_type;location;lat;lon;timestamp;P1;durP1;ratioP1;P2;durP2;ratioP2
35606;SDS011;21729;58.392;15.656;2023-07-13T00:00:30;9.93;;;5.27;;
35606;SDS011;21729;58.392;15.656;2023-07-13T00:02:57;5.57;;;4.60;;
35606;SDS011;21729;58.392;15.656;2023-07-13T00:05:24;9.50;;;5.35;;
35606;SDS011;21729;58.392;15.656;2023-07-13T00:07:52;9.87;;;5.20;;
35606;SDS011;21729;58.392;15.656;2023-07-13T00:10:20;8.80;;;5.10;;
35606;SDS011;21729;58.392;15.656;2023-07-13T00:12:49;7.30;;;5.37;;
35606;SDS011;21729;58.392;15.656;2023-07-13T00:15:23;9.93;;;5.45;;
35606;SDS011;21729;58.392;15.656;2023-07-13T00:17:52;7.32;;;5.63;;
35606;SDS011;21729;58.392;15.656;2023-07-13T00:20:20;8.07;;;5.70;;
35606;SDS011;21729;58.392;15.656;2023-07-13T00:22:50;7.57;;;5.43;;
35606;SDS011;21729;58.392;15.656;2023-07-13T00:25:18;8.95;;;5.53;;
35606;SDS011;21729;58.392;15.656;2023-07-13T00:27:46;8.93;;;5.60;;
35606;SDS011;21729;58.392;15.656;2023-07-13T00:30:15;9.43;;;5.40;;
35606;SDS011;21729;58.392;15.656;2023-07-13T00:32:42;10.55;;;5.32;;
35606;SDS011;21729;58.392;15.656;2023-07-13T00:35:10;10.75;;;5.65;;
35606;SDS011;21729;58.392;15.656;2023-07-13T00:37:39;12.85;;;5.70;;
35606;SDS011;21729;58.392;15.656;2023-07-13T00:40:07;9.35;;;5.18;;
35606;SDS011;21729;58.392;15.656;2023-07-13T00:42:36;11.70;;;5.70;;
35606;SDS011;21729;58.392;15.656;2023-07-13T00:45:06;8.05;;;5.00;;
35606;SDS011;21729;58.392;15.656;2023-07-13T00:47:49;9.52;;;5.47;;
35606;SDS011;21729;58.392;15.656;2023-07-13T00:50:16;8.60;;;5.90;;
35606;SDS011;21729;58.392;15.656;2023-07-13T00:52:44;12.02;;;5.65;;
35606;SDS011;21729;58.392;15.656;2023-07-13T00:55:13;8.13;;;6.00;;
35606;SDS011;21729;58.392;15.656;2023-07-13T00:57:41;10.18;;;5.93;;
35606;SDS011;21729;58.392;15.656;2023-07-13T01:00:11;8.52;;;5.55;;
35606;SDS011;21729;58.392;15.656;2023-07-13T01:02:40;10.20;;;5.50;;
35606;SDS011;21729;58.392;15.656;2023-07-13T01:05:11;9.88;;;5.72;;
35606;SDS011;21729;58.392;15.656;2023-07-13T01:07:40;9.85;;;6.10;;
35606;SDS011;21729;58.392;15.656;2023-07-13T01:10:09;9.57;;;6.20;;
35606;SDS011;21729;58.392;15.656;2023-07-13T01:12:37;11.50;;;6.40;;
35606;SDS011;21729;58.392;15.656;2023-07-13T01:15:32;11.23;;;6.25;;
35606;SDS011;21729;58.392;15.656;2023-07-13T01:18:02;11.15;;;6.57;;
35606;SDS011;21729;58.392;15.656;2023-07-13T01:20:30;12.60;;;6.60;;
35606;SDS011;21729;58.392;15.656;2023-07-13T01:23:02;8.65;;;6.10;;
35606;SDS011;21729;58.392;15.656;2023-07-13T01:25:31;12.52;;;6.68;;
35606;SDS011;21729;58.392;15.656;2023-07-13T01:27:58;9.00;;;6.13;;
35606;SDS011;21729;58.392;15.656;2023-07-13T01:30:25;8.70;;;5.88;;
35606;SDS011;21729;58.392;15.656;2023-07-13T01:32:52;10.07;;;6.50;;
35606;SDS011;21729;58.392;15.656;2023-07-13T01:35:20;9.77;;;6.18;;
35606;SDS011;21729;58.392;15.656;2023-07-13T01:37:47;11.23;;;6.20;;
35606;SDS011;21729;58.392;15.656;2023-07-13T01:40:15;9.80;;;6.03;;
35606;SDS011;21729;58.392;15.656;2023-07-13T01:42:43;9.95;;;6.30;;
35606;SDS011;21729;58.392;15.656;2023-07-13T01:45:10;13.20;;;6.90;;
35606;SDS011;21729;58.392;15.656;2023-07-13T01:47:37;11.57;;;6.30;;
35606;SDS011;21729;58.392;15.656;2023-07-13T01:50:04;9.60;;;6.70;;
35606;SDS011;21729;58.392;15.656;2023-07-13T01:52:32;9.55;;;6.32;;
35606;SDS011;21729;58.392;15.656;2023-07-13T01:54:59;9.43;;;6.10;;
35606;SDS011;21729;58.392;15.656;2023-07-13T01:57:27;11.15;;;5.97;;
35606;SDS011;21729;58.392;15.656;2023-07-13T01:59:55;9.07;;;6.60;;
35606;SDS011;21729;58.392;15.656;2023-07-13T02:02:22;11.65;;;6.72;;
35606;SDS011;21729;58.392;15.656;2023-07-13T02:04:49;9.80;;;6.60;;
35606;SDS011;21729;58.392;15.656;2023-07-13T02:07:16;12.52;;;7.32;;
35606;SDS011;21729;58.392;15.656;2023-07-13T02:09:43;12.00;;;6.15;;
35606;SDS011;21729;58.392;15.656;2023-07-13T02:12:10;10.70;;;6.43;;
35606;SDS011;21729;58.392;15.656;2023-07-13T02:14:39;11.60;;;6.13;;
35606;SDS011;21729;58.392;15.656;2023-07-13T02:17:06;12.77;;;5.90;;
35606;SDS011;21729;58.392;15.656;2023-07-13T02:19:33;10.80;;;5.90;;
35606;SDS011;21729;58.392;15.656;2023-07-13T02:22:01;8.43;;;5.93;;
35606;SDS011;21729;58.392;15.656;2023-07-13T02:24:28;8.53;;;5.13;;
35606;SDS011;21729;58.392;15.656;2023-07-13T02:26:55;8.63;;;5.45;;
35606;SDS011;21729;58.392;15.656;2023-07-13T02:29:22;7.85;;;5.40;;
35606;SDS011;21729;58.392;15.656;2023-07-13T02:31:51;9.32;;;5.85;;
35606;SDS011;21729;58.392;15.656;2023-07-13T02:34:18;9.52;;;5.80;;
35606;SDS011;21729;58.392;15.656;2023-07-13T02:36:45;8.40;;;5.50;;
35606;SDS011;21729;58.392;15.656;2023-07-13T02:39:13;10.82;;;5.47;;
35606;SDS011;21729;58.392;15.656;2023-07-13T02:41:40;9.52;;;5.55;;
35606;SDS011;21729;58.392;15.656;2023-07-13T02:44:07;9.38;;;5.63;;
35606;SDS011;21729;58.392;15.656;2023-07-13T02:46:35;9.15;;;5.60;;
35606;SDS011;21729;58.392;15.656;2023-07-13T02:49:04;7.72;;;5.30;;
35606;SDS011;21729;58.392;15.656;2023-07-13T02:51:32;9.20;;;5.63;;
35606;SDS011;21729;58.392;15.656;2023-07-13T02:54:00;7.85;;;5.43;;
35606;SDS011;21729;58.392;15.656;2023-07-13T02:56:27;8.48;;;5.43;;
35606;SDS011;21729;58.392;15.656;2023-07-13T02:58:56;5.60;;;5.05;;
35606;SDS011;21729;58.392;15.656;2023-07-13T03:01:24;8.07;;;4.60;;
35606;SDS011;21729;58.392;15.656;2023-07-13T03:03:51;5.35;;;4.85;;
35606;SDS011;21729;58.392;15.656;2023-07-13T03:06:20;9.07;;;5.32;;
35606;SDS011;21729;58.392;15.656;2023-07-13T03:08:48;7.60;;;5.20;;
35606;SDS011;21729;58.392;15.656;2023-07-13T03:11:16;7.70;;;5.20;;
35606;SDS011;21729;58.392;15.656;2023-07-13T03:13:45;8.05;;;5.00;;
35606;SDS011;21729;58.392;15.656;2023-07-13T03:16:12;7.47;;;5.03;;
35606;SDS011;21729;58.392;15.656;2023-07-13T03:18:41;7.72;;;4.97;;
35606;SDS011;21729;58.392;15.656;2023-07-13T03:21:09;6.07;;;4.65;;
35606;SDS011;21729;58.392;15.656;2023-07-13T03:23:38;6.82;;;4.72;;
35606;SDS011;21729;58.392;15.656;2023-07-13T03:26:06;8.48;;;4.88;;
35606;SDS011;21729;58.392;15.656;2023-07-13T03:28:35;6.72;;;4.82;;
35606;SDS011;21729;58.392;15.656;2023-07-13T03:31:03;9.02;;;5.07;;
35606;SDS011;21729;58.392;15.656;2023-07-13T03:33:32;7.10;;;4.80;;
35606;SDS011;21729;58.392;15.656;2023-07-13T03:35:59;6.63;;;4.80;;
35606;SDS011;21729;58.392;15.656;2023-07-13T03:38:26;9.30;;;4.60;;
35606;SDS011;21729;58.392;15.656;2023-07-13T03:40:55;8.88;;;4.40;;
35606;SDS011;21729;58.392;15.656;2023-07-13T03:43:22;6.13;;;4.10;;
35606;SDS011;21729;58.392;15.656;2023-07-13T03:45:49;6.65;;;4.60;;
35606;SDS011;21729;58.392;15.656;2023-07-13T03:48:16;4.88;;;4.28;;
35606;SDS011;21729;58.392;15.656;2023-07-13T03:50:43;6.00;;;4.38;;
35606;SDS011;21729;58.392;15.656;2023-07-13T03:53:10;6.82;;;4.45;;
35606;SDS011;21729;58.392;15.656;2023-07-13T03:55:37;8.05;;;4.32;;
35606;SDS011;21729;58.392;15.656;2023-07-13T03:58:26;6.90;;;4.20;;
35606;SDS011;21729;58.392;15.656;2023-07-13T04:00:56;6.50;;;5.40;;
35606;SDS011;21729;58.392;15.656;2023-07-13T04:03:23;8.27;;;5.90;;
35606;SDS011;21729;58.392;15.656;2023-07-13T04:05:53;6.50;;;4.00;;
35606;SDS011;21729;58.392;15.656;2023-07-13T04:08:25;4.70;;;4.00;;
35606;SDS011;21729;58.392;15.656;2023-07-13T04:10:53;9.30;;;4.22;;
35606;SDS011;21729;58.392;15.656;2023-07-13T04:13:21;8.77;;;4.10;;
35606;SDS011;21729;58.392;15.656;2023-07-13T04:15:50;6.30;;;4.00;;
35606;SDS011;21729;58.392;15.656;2023-07-13T04:18:18;7.63;;;3.97;;
35606;SDS011;21729;58.392;15.656;2023-07-13T04:20:46;8.40;;;3.72;;
35606;SDS011;21729;58.392;15.656;2023-07-13T04:23:13;5.95;;;3.78;;
35606;SDS011;21729;58.392;15.656;2023-07-13T04:25:43;8.52;;;3.95;;
35606;SDS011;21729;58.392;15.656;2023-07-13T04:28:10;7.03;;;4.00;;
35606;SDS011;21729;58.392;15.656;2023-07-13T04:30:38;6.27;;;3.50;;
35606;SDS011;21729;58.392;15.656;2023-07-13T04:33:06;6.97;;;4.03;;
35606;SDS011;21729;58.392;15.656;2023-07-13T04:35:34;5.53;;;3.38;;
35606;SDS011;21729;58.392;15.656;2023-07-13T04:38:02;7.15;;;3.40;;
35606;SDS011;21729;58.392;15.656;2023-07-13T04:40:29;6.20;;;3.17;;
35606;SDS011;21729;58.392;15.656;2023-07-13T04:42:56;6.30;;;3.40;;
35606;SDS011;21729;58.392;15.656;2023-07-13T04:45:24;4.83;;;3.07;;
35606;SDS011;21729;58.392;15.656;2023-07-13T04:47:51;8.18;;;3.38;;
35606;SDS011;21729;58.392;15.656;2023-07-13T04:50:20;7.63;;;3.28;;
35606;SDS011;21729;58.392;15.656;2023-07-13T04:52:48;5.55;;;3.38;;
35606;SDS011;21729;58.392;15.656;2023-07-13T04:55:16;8.32;;;3.30;;
35606;SDS011;21729;58.392;15.656;2023-07-13T04:57:43;5.80;;;3.00;;
35606;SDS011;21729;58.392;15.656;2023-07-13T05:00:11;5.32;;;3.15;;
35606;SDS011;21729;58.392;15.656;2023-07-13T05:02:41;7.40;;;2.90;;
35606;SDS011;21729;58.392;15.656;2023-07-13T05:05:10;6.22;;;2.80;;
35606;SDS011;21729;58.392;15.656;2023-07-13T05:07:38;6.53;;;2.90;;
35606;SDS011;21729;58.392;15.656;2023-07-13T05:10:06;7.77;;;3.20;;
35606;SDS011;21729;58.392;15.656;2023-07-13T05:12:34;3.20;;;2.83;;
35606;SDS011;21729;58.392;15.656;2023-07-13T05:15:02;6.25;;;2.88;;
35606;SDS011;21729;58.392;15.656;2023-07-13T05:17:29;7.53;;;3.03;;
35606;SDS011;21729;58.392;15.656;2023-07-13T05:19:56;4.63;;;2.42;;
35606;SDS011;21729;58.392;15.656;2023-07-13T05:22:23;3.53;;;2.30;;
35606;SDS011;21729;58.392;15.656;2023-07-13T05:24:52;5.00;;;2.50;;
35606;SDS011;21729;58.392;15.656;2023-07-13T05:27:19;5.07;;;2.30;;
35606;SDS011;21729;58.392;15.656;2023-07-13T05:29:46;5.40;;;2.13;;
35606;SDS011;21729;58.392;15.656;2023-07-13T05:32:13;3.92;;;2.00;;
35606;SDS011;21729;58.392;15.656;2023-07-13T05:34:40;4.40;;;1.90;;
35606;SDS011;21729;58.392;15.656;2023-07-13T05:37:08;3.85;;;1.70;;
35606;SDS011;21729;58.392;15.656;2023-07-13T05:39:35;5.43;;;1.55;;
35606;SDS011;21729;58.392;15.656;2023-07-13T05:42:04;3.15;;;1.30;;
35606;SDS011;21729;58.392;15.656;2023-07-13T05:44:31;5.15;;;1.52;;
35606;SDS011;21729;58.392;15.656;2023-07-13T05:46:58;2.97;;;1.38;;
35606;SDS011;21729;58.392;15.656;2023-07-13T05:49:25;3.70;;;1.45;;
35606;SDS011;21729;58.392;15.656;2023-07-13T05:51:53;3.70;;;1.50;;
35606;SDS011;21729;58.392;15.656;2023-07-13T05:54:20;3.83;;;1.50;;
35606;SDS011;21729;58.392;15.656;2023-07-13T05:56:47;4.50;;;1.60;;
35606;SDS011;21729;58.392;15.656;2023-07-13T05:59:15;3.43;;;1.30;;
35606;SDS011;21729;58.392;15.656;2023-07-13T06:01:44;2.22;;;1.30;;
35606;SDS011;21729;58.392;15.656;2023-07-13T06:04:11;2.33;;;1.30;;
35606;SDS011;21729;58.392;15.656;2023-07-13T06:06:38;5.03;;;1.52;;
35606;SDS011;21729;58.392;15.656;2023-07-13T06:09:05;3.22;;;1.50;;
35606;SDS011;21729;58.392;15.656;2023-07-13T06:11:32;2.80;;;1.23;;
35606;SDS011;21729;58.392;15.656;2023-07-13T06:14:00;2.85;;;1.38;;
35606;SDS011;21729;58.392;15.656;2023-07-13T06:16:29;3.10;;;1.27;;
35606;SDS011;21729;58.392;15.656;2023-07-13T06:18:56;3.80;;;1.40;;
35606;SDS011;21729;58.392;15.656;2023-07-13T06:21:23;2.97;;;1.50;;
35606;SDS011;21729;58.392;15.656;2023-07-13T06:23:51;3.77;;;1.47;;
35606;SDS011;21729;58.392;15.656;2023-07-13T06:26:19;2.97;;;1.50;;
35606;SDS011;21729;58.392;15.656;2023-07-13T06:28:47;3.70;;;1.60;;
35606;SDS011;21729;58.392;15.656;2023-07-13T06:31:14;3.03;;;1.55;;
35606;SDS011;21729;58.392;15.656;2023-07-13T06:33:43;2.63;;;1.40;;
35606;SDS011;21729;58.392;15.656;2023-07-13T06:36:11;4.95;;;1.40;;
35606;SDS011;21729;58.392;15.656;2023-07-13T06:38:38;2.88;;;1.45;;
35606;SDS011;21729;58.392;15.656;2023-07-13T06:41:05;3.17;;;1.38;;
35606;SDS011;21729;58.392;15.656;2023-07-13T06:43:33;4.07;;;1.35;;
35606;SDS011;21729;58.392;15.656;2023-07-13T06:46:00;3.15;;;1.50;;
35606;SDS011;21729;58.392;15.656;2023-07-13T06:48:28;4.97;;;1.48;;
35606;SDS011;21729;58.392;15.656;2023-07-13T06:50:56;4.20;;;1.50;;
35606;SDS011;21729;58.392;15.656;2023-07-13T06:53:24;3.08;;;1.55;;
35606;SDS011;21729;58.392;15.656;2023-07-13T06:55:51;3.53;;;1.35;;
35606;SDS011;21729;58.392;15.656;2023-07-13T06:58:18;5.35;;;1.60;;
35606;SDS011;21729;58.392;15.656;2023-07-13T07:00:46;2.72;;;1.30;;
35606;SDS011;21729;58.392;15.656;2023-07-13T07:03:16;5.10;;;1.50;;
35606;SDS011;21729;58.392;15.656;2023-07-13T07:05:43;2.40;;;1.40;;
35606;SDS011;21729;58.392;15.656;2023-07-13T07:08:12;2.97;;;1.13;;
35606;SDS011;21729;58.392;15.656;2023-07-13T07:10:39;4.40;;;1.40;;
35606;SDS011;21729;58.392;15.656;2023-07-13T07:13:07;6.53;;;1.47;;
35606;SDS011;21729;58.392;15.656;2023-07-13T07:15:34;5.07;;;1.48;;
35606;SDS011;21729;58.392;15.656;2023-07-13T07:18:01;2.78;;;1.30;;
35606;SDS011;21729;58.392;15.656;2023-07-13T07:20:30;3.33;;;1.40;;
35606;SDS011;21729;58.392;15.656;2023-07-13T07:23:01;4.68;;;1.40;;
35606;SDS011;21729;58.392;15.656;2023-07-13T07:25:30;3.22;;;1.25;;
35606;SDS011;21729;58.392;15.656;2023-07-13T07:28:00;2.80;;;1.23;;
35606;SDS011;21729;58.392;15.656;2023-07-13T07:30:27;3.67;;;1.25;;
35606;SDS011;21729;58.392;15.656;2023-07-13T07:32:54;3.90;;;1.45;;
35606;SDS011;21729;58.392;15.656;2023-07-13T07:35:21;3.40;;;1.30;;
35606;SDS011;21729;58.392;15.656;2023-07-13T07:37:48;2.78;;;1.30;;
35606;SDS011;21729;58.392;15.656;2023-07-13T07:40:15;2.55;;;1.23;;
35606;SDS011;21729;58.392;15.656;2023-07-13T07:42:44;3.40;;;1.40;;
35606;SDS011;21729;58.392;15.656;2023-07-13T07:45:11;4.28;;;1.30;;
35606;SDS011;21729;58.392;15.656;2023-07-13T07:47:38;3.95;;;1.30;;
35606;SDS011;21729;58.392;15.656;2023-07-13T07:50:06;4.35;;;1.30;;
35606;SDS011;21729;58.392;15.656;2023-07-13T07:52:34;2.85;;;1.40;;
35606;SDS011;21729;58.392;15.656;2023-07-13T07:55:01;3.42;;;1.30;;
35606;SDS011;21729;58.392;15.656;2023-07-13T07:57:28;3.63;;;1.35;;
35606;SDS011;21729;58.392;15.656;2023-07-13T07:59:56;3.73;;;1.30;;
35606;SDS011;21729;58.392;15.656;2023-07-13T08:02:24;4.75;;;1.60;;
35606;SDS011;21729;58.392;15.656;2023-07-13T08:04:51;4.30;;;1.40;;
35606;SDS011;21729;58.392;15.656;2023-07-13T08:07:19;2.88;;;1.25;;
35606;SDS011;21729;58.392;15.656;2023-07-13T08:09:46;3.40;;;1.27;;
35606;SDS011;21729;58.392;15.656;2023-07-13T08:12:17;2.45;;;1.30;;
35606;SDS011;21729;58.392;15.656;2023-07-13T08:14:44;4.60;;;1.33;;
35606;SDS011;21729;58.392;15.656;2023-07-13T08:17:13;3.30;;;1.30;;
35606;SDS011;21729;58.392;15.656;2023-07-13T08:19:40;2.90;;;1.30;;
35606;SDS011;21729;58.392;15.656;2023-07-13T08:22:07;3.50;;;1.20;;
35606;SDS011;21729;58.392;15.656;2023-07-13T08:24:34;3.20;;;1.00;;
35606;SDS011;21729;58.392;15.656;2023-07-13T08:27:01;3.08;;;1.17;;
35606;SDS011;21729;58.392;15.656;2023-07-13T08:29:28;2.28;;;1.10;;
35606;SDS011;21729;58.392;15.656;2023-07-13T08:31:57;3.10;;;1.30;;
35606;SDS011;21729;58.392;15.656;2023-07-13T08:34:25;2.00;;;1.15;;
35606;SDS011;21729;58.392;15.656;2023-07-13T08:36:53;2.92;;;1.20;;
35606;SDS011;21729;58.392;15.656;2023-07-13T08:39:20;2.97;;;1.35;;
35606;SDS011;21729;58.392;15.656;2023-07-13T08:41:47;3.00;;;1.40;;
35606;SDS011;21729;58.392;15.656;2023-07-13T08:44:22;2.60;;;1.43;;
35606;SDS011;21729;58.392;15.656;2023-07-13T08:46:57;3.72;;;1.48;;
35606;SDS011;21729;58.392;15.656;2023-07-13T08:49:26;2.63;;;1.10;;
35606;SDS011;21729;58.392;15.656;2023-07-13T08:51:56;4.30;;;1.20;;
35606;SDS011;21729;58.392;15.656;2023-07-13T08:54:27;2.67;;;0.80;;
35606;SDS011;21729;58.392;15.656;2023-07-13T08:57:03;2.35;;;1.00;;
35606;SDS011;21729;58.392;15.656;2023-07-13T08:59:37;1.98;;;1.02;;
35606;SDS011;21729;58.392;15.656;2023-07-13T09:02:08;2.45;;;1.00;;
35606;SDS011;21729;58.392;15.656;2023-07-13T09:04:49;1.87;;;0.97;;
35606;SDS011;21729;58.392;15.656;2023-07-13T09:07:21;3.75;;;1.30;;
35606;SDS011;21729;58.392;15.656;2023-07-13T09:10:02;2.22;;;1.00;;
35606;SDS011;21729;58.392;15.656;2023-07-13T09:12:40;2.03;;;0.95;;
35606;SDS011;21729;58.392;15.656;2023-07-13T09:15:24;2.58;;;0.93;;
35606;SDS011;21729;58.392;15.656;2023-07-13T09:17:56;3.30;;;1.08;;
35606;SDS011;21729;58.392;15.656;2023-07-13T09:20:30;1.83;;;0.85;;
35606;SDS011;21729;58.392;15.656;2023-07-13T09:23:01;2.58;;;1.23;;
35606;SDS011;21729;58.392;15.656;2023-07-13T09:25:32;5.53;;;1.20;;
35606;SDS011;21729;58.392;15.656;2023-07-13T09:28:02;3.65;;;1.35;;
35606;SDS011;21729;58.392;15.656;2023-07-13T09:30:46;3.20;;;1.10;;
35606;SDS011;21729;58.392;15.656;2023-07-13T09:33:18;1.63;;;1.10;;
35606;SDS011;21729;58.392;15.656;2023-07-13T09:35:47;3.50;;;1.20;;
35606;SDS011;21729;58.392;15.656;2023-07-13T09:38:15;2.43;;;1.20;;
35606;SDS011;21729;58.392;15.656;2023-07-13T09:43:37;2.72;;;1.02;;
35606;SDS011;21729;58.392;15.656;2023-07-13T09:46:07;2.00;;;0.90;;
35606;SDS011;21729;58.392;15.656;2023-07-13T09:48:47;1.67;;;1.00;;
35606;SDS011;21729;58.392;15.656;2023-07-13T09:51:16;2.33;;;1.00;;
35606;SDS011;21729;58.392;15.656;2023-07-13T09:53:43;2.55;;;1.05;;
35606;SDS011;21729;58.392;15.656;2023-07-13T09:56:19;2.22;;;1.10;;
35606;SDS011;21729;58.392;15.656;2023-07-13T09:58:47;2.07;;;1.10;;
35606;SDS011;21729;58.392;15.656;2023-07-13T10:01:14;3.10;;;1.30;;
35606;SDS011;21729;58.392;15.656;2023-07-13T10:03:51;1.83;;;1.20;;
35606;SDS011;21729;58.392;15.656;2023-07-13T10:06:21;2.60;;;1.15;;
35606;SDS011;21729;58.392;15.656;2023-07-13T10:08:49;1.98;;;1.02;;
35606;SDS011;21729;58.392;15.656;2023-07-13T10:11:18;4.32;;;1.10;;
35606;SDS011;21729;58.392;15.656;2023-07-13T10:13:48;3.77;;;1.40;;
35606;SDS011;21729;58.392;15.656;2023-07-13T10:16:21;2.85;;;1.15;;
35606;SDS011;21729;58.392;15.656;2023-07-13T10:18:50;2.72;;;1.25;;
35606;SDS011;21729;58.392;15.656;2023-07-13T10:21:25;2.58;;;1.20;;
35606;SDS011;21729;58.392;15.656;2023-07-13T10:23:55;2.72;;;1.10;;
35606;SDS011;21729;58.392;15.656;2023-07-13T10:26:29;1.90;;;1.10;;
35606;SDS011;21729;58.392;15.656;2023-07-13T10:29:01;3.25;;;1.30;;
35606;SDS011;21729;58.392;15.656;2023-07-13T10:31:33;3.05;;;1.40;;
35606;SDS011;21729;58.392;15.656;2023-07-13T10:34:03;2.47;;;1.13;;
35606;SDS011;21729;58.392;15.656;2023-07-13T10:36:35;1.98;;;1.00;;
35606;SDS011;21729;58.392;15.656;2023-07-13T10:39:09;3.07;;;1.10;;
35606;SDS011;21729;58.392;15.656;2023-07-13T10:41:41;3.08;;;1.13;;
35606;SDS011;21729;58.392;15.656;2023-07-13T10:44:13;2.95;;;1.00;;
35606;SDS011;21729;58.392;15.656;2023-07-13T10:46:46;3.53;;;1.10;;
35606;SDS011;21729;58.392;15.656;2023-07-13T10:49:15;3.08;;;1.20;;
35606;SDS011;21729;58.392;15.656;2023-07-13T10:51:45;3.15;;;1.15;;
35606;SDS011;21729;58.392;15.656;2023-07-13T10:54:17;2.90;;;1.25;;
35606;SDS011;21729;58.392;15.656;2023-07-13T10:56:48;2.47;;;1.02;;
35606;SDS011;21729;58.392;15.656;2023-07-13T10:59:17;2.42;;;1.10;;
35606;SDS011;21729;58.392;15.656;2023-07-13T11:01:53;2.22;;;1.05;;
35606;SDS011;21729;58.392;15.656;2023-07-13T11:04:22;2.13;;;0.90;;
35606;SDS011;21729;58.392;15.656;2023-07-13T11:06:57;3.53;;;1.00;;
35606;SDS011;21729;58.392;15.656;2023-07-13T11:09:34;1.98;;;0.80;;
35606;SDS011;21729;58.392;15.656;2023-07-13T11:12:08;2.50;;;1.00;;
35606;SDS011;21729;58.392;15.656;2023-07-13T11:14:42;2.92;;;0.90;;
35606;SDS011;21729;58.392;15.656;2023-07-13T11:17:33;2.15;;;1.00;;
35606;SDS011;21729;58.392;15.656;2023-07-13T11:20:09;2.50;;;1.15;;
35606;SDS011;21729;58.392;15.656;2023-07-13T11:22:49;1.30;;;0.90;;
35606;SDS011;21729;58.392;15.656;2023-07-13T11:25:25;2.13;;;1.08;;
35606;SDS011;21729;58.392;15.656;2023-07-13T11:28:05;1.92;;;0.88;;
35606;SDS011;21729;58.392;15.656;2023-07-13T11:30:43;1.45;;;0.93;;
35606;SDS011;21729;58.392;15.656;2023-07-13T11:33:17;2.38;;;1.10;;
35606;SDS011;21729;58.392;15.656;2023-07-13T11:35:48;1.50;;;0.95;;
35606;SDS011;21729;58.392;15.656;2023-07-13T11:38:30;2.30;;;1.15;;
35606;SDS011;21729;58.392;15.656;2023-07-13T11:41:01;1.73;;;1.00;;
35606;SDS011;21729;58.392;15.656;2023-07-13T11:43:31;4.47;;;1.20;;
35606;SDS011;21729;58.392;15.656;2023-07-13T11:46:11;2.65;;;1.20;;
35606;SDS011;21729;58.392;15.656;2023-07-13T11:48:40;2.00;;;0.95;;
35606;SDS011;21729;58.392;15.656;2023-07-13T11:51:09;2.80;;;1.27;;
35606;SDS011;21729;58.392;15.656;2023-07-13T11:53:47;2.42;;;1.00;;
35606;SDS011;21729;58.392;15.656;2023-07-13T11:56:16;2.05;;;1.10;;
35606;SDS011;21729;58.392;15.656;2023-07-13T11:58:44;2.03;;;1.02;;
35606;SDS011;21729;58.392;15.656;2023-07-13T12:01:18;2.60;;;1.13;;
35606;SDS011;21729;58.392;15.656;2023-07-13T12:03:48;1.80;;;1.03;;
35606;SDS011;21729;58.392;15.656;2023-07-13T12:06:24;1.88;;;1.10;;
35606;SDS011;21729;58.392;15.656;2023-07-13T12:08:59;2.13;;;0.90;;
35606;SDS011;21729;58.392;15.656;2023-07-13T12:11:28;1.70;;;1.00;;
35606;SDS011;21729;58.392;15.656;2023-07-13T12:13:56;2.10;;;1.00;;
35606;SDS011;21729;58.392;15.656;2023-07-13T12:16:28;1.80;;;1.02;;
35606;SDS011;21729;58.392;15.656;2023-07-13T12:18:58;1.70;;;1.13;;
35606;SDS011;21729;58.392;15.656;2023-07-13T12:21:30;2.50;;;1.48;;
35606;SDS011;21729;58.392;15.656;2023-07-13T12:23:59;1.92;;;1.10;;
35606;SDS011;21729;58.392;15.656;2023-07-13T12:26:29;2.35;;;1.10;;
35606;SDS011;21729;58.392;15.656;2023-07-13T12:28:58;1.35;;;0.90;;
35606;SDS011;21729;58.392;15.656;2023-07-13T12:31:30;1.42;;;0.90;;
35606;SDS011;21729;58.392;15.656;2023-07-13T12:34:02;2.17;;;1.10;;
35606;SDS011;21729;58.392;15.656;2023-07-13T12:36:33;2.63;;;1.00;;
35606;SDS011;21729;58.392;15.656;2023-07-13T12:39:06;2.00;;;1.00;;
35606;SDS011;21729;58.392;15.656;2023-07-13T12:41:40;1.60;;;1.00;;
35606;SDS011;21729;58.392;15.656;2023-07-13T12:44:11;1.38;;;0.90;;
35606;SDS011;21729;58.392;15.656;2023-07-13T12:46:39;1.70;;;0.90;;
35606;SDS011;21729;58.392;15.656;2023-07-13T12:49:16;1.77;;;0.88;;
35606;SDS011;21729;58.392;15.656;2023-07-13T12:51:49;2.40;;;1.08;;
35606;SDS011;21729;58.392;15.656;2023-07-13T12:54:18;1.88;;;1.10;;
35606;SDS011;21729;58.392;15.656;2023-07-13T12:56:48;3.03;;;1.10;;
35606;SDS011;21729;58.392;15.656;2023-07-13T12:59:19;1.67;;;1.02;;
35606;SDS011;21729;58.392;15.656;2023-07-13T13:01:47;1.73;;;1.20;;
35606;SDS011;21729;58.392;15.656;2023-07-13T13:04:16;2.88;;;1.20;;
35606;SDS011;21729;58.392;15.656;2023-07-13T13:06:46;2.65;;;1.00;;
35606;SDS011;21729;58.392;15.656;2023-07-13T13:09:14;3.10;;;1.02;;
35606;SDS011;21729;58.392;15.656;2023-07-13T13:11:46;3.77;;;1.40;;
35606;SDS011;21729;58.392;15.656;2023-07-13T13:14:13;4.30;;;1.40;;
35606;SDS011;21729;58.392;15.656;2023-07-13T13:16:44;2.67;;;1.30;;
35606;SDS011;21729;58.392;15.656;2023-07-13T13:19:15;3.53;;;1.30;;
35606;SDS011;21729;58.392;15.656;2023-07-13T13:21:46;2.80;;;1.10;;
35606;SDS011;21729;58.392;15.656;2023-07-13T13:24:16;2.15;;;1.25;;
35606;SDS011;21729;58.392;15.656;2023-07-13T13:26:46;1.52;;;1.10;;
35606;SDS011;21729;58.392;15.656;2023-07-13T13:29:16;1.98;;;1.10;;
35606;SDS011;21729;58.392;15.656;2023-07-13T13:31:44;2.27;;;1.10;;
35606;SDS011;21729;58.392;15.656;2023-07-13T13:34:12;1.40;;;1.00;;
35606;SDS011;21729;58.392;15.656;2023-07-13T13:36:40;1.58;;;1.00;;
35606;SDS011;21729;58.392;15.656;2023-07-13T13:39:18;1.40;;;0.90;;
35606;SDS011;21729;58.392;15.656;2023-07-13T13:41:49;1.63;;;0.90;;
35606;SDS011;21729;58.392;15.656;2023-07-13T13:44:18;2.22;;;0.90;;
35606;SDS011;21729;58.392;15.656;2023-07-13T13:46:47;1.15;;;0.70;;
35606;SDS011;21729;58.392;15.656;2023-07-13T13:49:17;0.93;;;0.70;;
35606;SDS011;21729;58.392;15.656;2023-07-13T13:51:47;0.70;;;0.70;;
35606;SDS011;21729;58.392;15.656;2023-07-13T13:54:15;0.60;;;0.60;;
35606;SDS011;21729;58.392;15.656;2023-07-13T13:56:45;0.98;;;0.80;;
35606;SDS011;21729;58.392;15.656;2023-07-13T13:59:15;0.95;;;0.68;;
35606;SDS011;21729;58.392;15.656;2023-07-13T14:01:42;1.15;;;0.73;;
35606;SDS011;21729;58.392;15.656;2023-07-13T14:04:13;1.92;;;0.82;;
35606;SDS011;21729;58.392;15.656;2023-07-13T14:06:42;1.70;;;0.85;;
35606;SDS011;21729;58.392;15.656;2023-07-13T14:09:10;1.73;;;0.80;;
35606;SDS011;21729;58.392;15.656;2023-07-13T14:11:41;1.80;;;0.90;;
35606;SDS011;21729;58.392;15.656;2023-07-13T14:14:09;1.50;;;0.73;;
35606;SDS011;21729;58.392;15.656;2023-07-13T14:16:43;1.65;;;0.85;;
35606;SDS011;21729;58.392;15.656;2023-07-13T14:19:12;2.20;;;1.10;;
35606;SDS011;21729;58.392;15.656;2023-07-13T14:21:40;0.80;;;0.80;;
35606;SDS011;21729;58.392;15.656;2023-07-13T14:24:07;1.43;;;1.13;;
35606;SDS011;21729;58.392;15.656;2023-07-13T14:26:36;3.85;;;0.90;;
35606;SDS011;21729;58.392;15.656;2023-07-13T14:29:05;2.28;;;1.00;;
35606;SDS011;21729;58.392;15.656;2023-07-13T14:31:41;3.33;;;1.30;;
35606;SDS011;21729;58.392;15.656;2023-07-13T14:34:11;2.25;;;1.20;;
35606;SDS011;21729;58.392;15.656;2023-07-13T14:36:40;2.45;;;1.08;;
35606;SDS011;21729;58.392;15.656;2023-07-13T14:39:11;2.63;;;1.17;;
35606;SDS011;21729;58.392;15.656;2023-07-13T14:41:41;1.33;;;1.00;;
35606;SDS011;21729;58.392;15.656;2023-07-13T14:44:11;1.55;;;0.70;;
35606;SDS011;21729;58.392;15.656;2023-07-13T14:46:38;1.07;;;0.77;;
35606;SDS011;21729;58.392;15.656;2023-07-13T14:49:10;1.33;;;0.80;;